sensor_id;sensor_type;location;lat;lon;timestamp;P1;durP1;ratioP1;P2;durP2;ratioP2
9222;SDS011;7557;51.698;3.942;2023-02-15T00:00:18;274.67;;;47.77;;
9222;SDS011;7557;51.698;3.942;2023-02-15T00:02:46;151.67;;;37.07;;
9222;SDS011;7557;51.698;3.942;2023-02-15T00:05:13;164.83;;;35.10;;
9222;SDS011;7557;51.698;3.942;2023-02-15T00:07:40;130.90;;;35.10;;
9222;SDS011;7557;51.698;3.942;2023-02-15T00:10:07;184.67;;;34.10;;
9222;SDS011;7557;51.698;3.942;2023-02-15T00:12:38;195.63;;;39.23;;
9222;SDS011;7557;51.698;3.942;2023-02-15T00:15:05;187.23;;;38.27;;
9222;SDS011;7557;51.698;3.942;2023-02-15T00:17:33;240.80;;;42.30;;
9222;SDS011;7557;51.698;3.942;2023-02-15T00:20:00;207.60;;;38.77;;
9222;SDS011;7557;51.698;3.942;2023-02-15T00:22:27;157.43;;;37.20;;
9222;SDS011;7557;51.698;3.942;2023-02-15T00:24:54;160.97;;;35.23;;
9222;SDS011;7557;51.698;3.942;2023-02-15T00:27:22;167.33;;;33.57;;
9222;SDS011;7557;51.698;3.942;2023-02-15T00:29:50;151.43;;;33.40;;
9222;SDS011;7557;51.698;3.942;2023-02-15T00:32:18;176.30;;;35.93;;
9222;SDS011;7557;51.698;3.942;2023-02-15T00:34:45;182.87;;;33.80;;
9222;SDS011;7557;51.698;3.942;2023-02-15T00:37:12;267.80;;;41.67;;
9222;SDS011;7557;51.698;3.942;2023-02-15T00:39:39;247.73;;;40.03;;
9222;SDS011;7557;51.698;3.942;2023-02-15T00:42:06;204.87;;;34.17;;
9222;SDS011;7557;51.698;3.942;2023-02-15T00:44:33;128.03;;;32.97;;
9222;SDS011;7557;51.698;3.942;2023-02-15T00:47:02;66.87;;;29.70;;
9222;SDS011;7557;51.698;3.942;2023-02-15T00:52:51;63.80;;;29.00;;
9222;SDS011;7557;51.698;3.942;2023-02-15T00:55:18;162.47;;;37.33;;
9222;SDS011;7557;51.698;3.942;2023-02-15T00:57:45;158.00;;;38.13;;
9222;SDS011;7557;51.698;3.942;2023-02-15T01:00:13;145.87;;;36.53;;
9222;SDS011;7557;51.698;3.942;2023-02-15T01:02:42;171.10;;;38.87;;
9222;SDS011;7557;51.698;3.942;2023-02-15T01:05:09;114.63;;;32.63;;
9222;SDS011;7557;51.698;3.942;2023-02-15T01:07:36;132.43;;;35.33;;
9222;SDS011;7557;51.698;3.942;2023-02-15T01:10:04;118.47;;;32.63;;
9222;SDS011;7557;51.698;3.942;2023-02-15T01:12:32;115.97;;;33.07;;
9222;SDS011;7557;51.698;3.942;2023-02-15T01:14:59;126.90;;;34.70;;
9222;SDS011;7557;51.698;3.942;2023-02-15T01:17:26;176.80;;;35.80;;
9222;SDS011;7557;51.698;3.942;2023-02-15T01:19:55;159.10;;;35.00;;
9222;SDS011;7557;51.698;3.942;2023-02-15T01:22:22;196.20;;;40.17;;
9222;SDS011;7557;51.698;3.942;2023-02-15T01:24:49;178.93;;;40.63;;
9222;SDS011;7557;51.698;3.942;2023-02-15T01:27:16;254.93;;;46.40;;
9222;SDS011;7557;51.698;3.942;2023-02-15T01:29:44;332.47;;;56.00;;
9222;SDS011;7557;51.698;3.942;2023-02-15T01:32:12;271.47;;;52.67;;
9222;SDS011;7557;51.698;3.942;2023-02-15T01:34:39;227.30;;;41.20;;
9222;SDS011;7557;51.698;3.942;2023-02-15T01:37:08;298.23;;;47.53;;
9222;SDS011;7557;51.698;3.942;2023-02-15T01:39:35;159.67;;;34.77;;
9222;SDS011;7557;51.698;3.942;2023-02-15T01:42:02;90.37;;;33.73;;
9222;SDS011;7557;51.698;3.942;2023-02-15T01:44:45;63.90;;;32.93;;
9222;SDS011;7557;51.698;3.942;2023-02-15T01:47:15;292.33;;;52.40;;
9222;SDS011;7557;51.698;3.942;2023-02-15T01:49:46;340.60;;;58.27;;
9222;SDS011;7557;51.698;3.942;2023-02-15T01:52:15;281.37;;;52.73;;
9222;SDS011;7557;51.698;3.942;2023-02-15T01:54:44;172.30;;;39.17;;
9222;SDS011;7557;51.698;3.942;2023-02-15T01:57:15;163.00;;;37.07;;
9222;SDS011;7557;51.698;3.942;2023-02-15T01:59:46;182.50;;;38.70;;
9222;SDS011;7557;51.698;3.942;2023-02-15T02:02:19;248.07;;;43.40;;
9222;SDS011;7557;51.698;3.942;2023-02-15T02:04:49;338.50;;;50.23;;
9222;SDS011;7557;51.698;3.942;2023-02-15T02:07:20;366.50;;;56.93;;
9222;SDS011;7557;51.698;3.942;2023-02-15T02:09:50;341.97;;;52.20;;
9222;SDS011;7557;51.698;3.942;2023-02-15T02:12:18;291.67;;;45.87;;
9222;SDS011;7557;51.698;3.942;2023-02-15T02:14:46;453.80;;;66.80;;
9222;SDS011;7557;51.698;3.942;2023-02-15T02:17:16;415.23;;;56.63;;
9222;SDS011;7557;51.698;3.942;2023-02-15T02:22:55;285.87;;;43.63;;
9222;SDS011;7557;51.698;3.942;2023-02-15T02:26:00;125.93;;;34.70;;
9222;SDS011;7557;51.698;3.942;2023-02-15T02:35:22;181.77;;;36.40;;
9222;SDS011;7557;51.698;3.942;2023-02-15T02:37:56;142.07;;;34.30;;
9222;SDS011;7557;51.698;3.942;2023-02-15T02:40:34;157.17;;;36.73;;
9222;SDS011;7557;51.698;3.942;2023-02-15T02:43:10;115.10;;;32.73;;
9222;SDS011;7557;51.698;3.942;2023-02-15T02:45:43;62.80;;;30.87;;
9222;SDS011;7557;51.698;3.942;2023-02-15T02:48:18;207.57;;;39.70;;
9222;SDS011;7557;51.698;3.942;2023-02-15T02:50:49;133.10;;;31.00;;
9222;SDS011;7557;51.698;3.942;2023-02-15T02:53:16;41.93;;;25.97;;
9222;SDS011;7557;51.698;3.942;2023-02-15T02:55:44;110.40;;;31.33;;
9222;SDS011;7557;51.698;3.942;2023-02-15T02:58:15;93.13;;;28.70;;
9222;SDS011;7557;51.698;3.942;2023-02-15T03:00:48;78.97;;;27.50;;
9222;SDS011;7557;51.698;3.942;2023-02-15T03:03:20;93.77;;;29.13;;
9222;SDS011;7557;51.698;3.942;2023-02-15T03:05:55;90.53;;;31.00;;
9222;SDS011;7557;51.698;3.942;2023-02-15T03:08:26;129.60;;;32.60;;
9222;SDS011;7557;51.698;3.942;2023-02-15T03:10:59;203.37;;;39.43;;
9222;SDS011;7557;51.698;3.942;2023-02-15T03:13:28;142.97;;;32.67;;
9222;SDS011;7557;51.698;3.942;2023-02-15T03:15:55;171.67;;;34.50;;
9222;SDS011;7557;51.698;3.942;2023-02-15T03:18:42;100.20;;;28.20;;
9222;SDS011;7557;51.698;3.942;2023-02-15T03:21:19;173.43;;;32.73;;
9222;SDS011;7557;51.698;3.942;2023-02-15T03:23:49;71.70;;;26.80;;
9222;SDS011;7557;51.698;3.942;2023-02-15T03:26:19;114.47;;;29.40;;
9222;SDS011;7557;51.698;3.942;2023-02-15T03:28:49;117.90;;;29.67;;
9222;SDS011;7557;51.698;3.942;2023-02-15T03:31:19;112.63;;;26.37;;
9222;SDS011;7557;51.698;3.942;2023-02-15T03:33:52;188.40;;;30.53;;
9222;SDS011;7557;51.698;3.942;2023-02-15T03:36:26;144.83;;;32.73;;
9222;SDS011;7557;51.698;3.942;2023-02-15T03:38:59;108.17;;;27.63;;
9222;SDS011;7557;51.698;3.942;2023-02-15T03:41:32;110.37;;;30.40;;
9222;SDS011;7557;51.698;3.942;2023-02-15T03:44:06;92.93;;;28.03;;
9222;SDS011;7557;51.698;3.942;2023-02-15T03:46:39;96.83;;;29.70;;
9222;SDS011;7557;51.698;3.942;2023-02-15T03:49:14;128.57;;;29.77;;
9222;SDS011;7557;51.698;3.942;2023-02-15T03:51:48;86.20;;;29.17;;
9222;SDS011;7557;51.698;3.942;2023-02-15T03:54:18;49.10;;;24.57;;
9222;SDS011;7557;51.698;3.942;2023-02-15T03:57:07;38.90;;;23.50;;
9222;SDS011;7557;51.698;3.942;2023-02-15T03:59:54;26.47;;;23.30;;
9222;SDS011;7557;51.698;3.942;2023-02-15T04:02:39;37.20;;;27.83;;
9222;SDS011;7557;51.698;3.942;2023-02-15T04:05:17;35.57;;;26.50;;
9222;SDS011;7557;51.698;3.942;2023-02-15T04:07:46;40.13;;;29.03;;
9222;SDS011;7557;51.698;3.942;2023-02-15T04:10:13;42.90;;;30.80;;
9222;SDS011;7557;51.698;3.942;2023-02-15T04:12:58;36.77;;;27.60;;
9222;SDS011;7557;51.698;3.942;2023-02-15T04:15:25;33.90;;;27.93;;
9222;SDS011;7557;51.698;3.942;2023-02-15T04:18:09;54.03;;;26.27;;
9222;SDS011;7557;51.698;3.942;2023-02-15T04:20:36;41.83;;;29.00;;
9222;SDS011;7557;51.698;3.942;2023-02-15T04:23:23;39.00;;;29.23;;
9222;SDS011;7557;51.698;3.942;2023-02-15T04:26:07;41.40;;;29.70;;
9222;SDS011;7557;51.698;3.942;2023-02-15T04:28:34;47.80;;;31.87;;
9222;SDS011;7557;51.698;3.942;2023-02-15T04:31:02;39.90;;;30.10;;
9222;SDS011;7557;51.698;3.942;2023-02-15T04:33:29;35.10;;;27.47;;
9222;SDS011;7557;51.698;3.942;2023-02-15T04:35:56;33.07;;;26.73;;
9222;SDS011;7557;51.698;3.942;2023-02-15T04:38:25;38.57;;;27.23;;
9222;SDS011;7557;51.698;3.942;2023-02-15T04:40:52;36.30;;;26.37;;
9222;SDS011;7557;51.698;3.942;2023-02-15T04:43:19;33.10;;;25.37;;
9222;SDS011;7557;51.698;3.942;2023-02-15T04:45:49;36.93;;;27.93;;
9222;SDS011;7557;51.698;3.942;2023-02-15T04:48:17;38.00;;;27.73;;
9222;SDS011;7557;51.698;3.942;2023-02-15T04:50:44;36.30;;;26.77;;
9222;SDS011;7557;51.698;3.942;2023-02-15T04:53:11;37.43;;;27.57;;
9222;SDS011;7557;51.698;3.942;2023-02-15T04:55:40;36.47;;;27.53;;
9222;SDS011;7557;51.698;3.942;2023-02-15T04:58:07;43.63;;;29.07;;
9222;SDS011;7557;51.698;3.942;2023-02-15T05:00:34;42.43;;;28.23;;
9222;SDS011;7557;51.698;3.942;2023-02-15T05:03:02;44.73;;;33.07;;
9222;SDS011;7557;51.698;3.942;2023-02-15T05:05:29;46.00;;;32.03;;
9222;SDS011;7557;51.698;3.942;2023-02-15T05:07:56;49.20;;;32.03;;
9222;SDS011;7557;51.698;3.942;2023-02-15T05:10:23;47.13;;;31.97;;
9222;SDS011;7557;51.698;3.942;2023-02-15T05:12:52;44.83;;;31.67;;
9222;SDS011;7557;51.698;3.942;2023-02-15T05:15:19;42.53;;;30.73;;
9222;SDS011;7557;51.698;3.942;2023-02-15T05:17:46;44.80;;;31.23;;
9222;SDS011;7557;51.698;3.942;2023-02-15T05:20:13;44.00;;;32.40;;
9222;SDS011;7557;51.698;3.942;2023-02-15T05:22:40;52.37;;;34.20;;
9222;SDS011;7557;51.698;3.942;2023-02-15T05:25:07;53.17;;;33.93;;
9222;SDS011;7557;51.698;3.942;2023-02-15T05:27:54;63.50;;;37.37;;
9222;SDS011;7557;51.698;3.942;2023-02-15T05:30:38;60.07;;;37.63;;
9222;SDS011;7557;51.698;3.942;2023-02-15T05:33:06;65.90;;;39.07;;
9222;SDS011;7557;51.698;3.942;2023-02-15T05:35:33;68.20;;;39.37;;
9222;SDS011;7557;51.698;3.942;2023-02-15T05:38:00;64.93;;;39.13;;
9222;SDS011;7557;51.698;3.942;2023-02-15T05:40:27;56.27;;;37.83;;
9222;SDS011;7557;51.698;3.942;2023-02-15T05:42:56;65.93;;;38.93;;
9222;SDS011;7557;51.698;3.942;2023-02-15T05:45:24;65.30;;;40.57;;
9222;SDS011;7557;51.698;3.942;2023-02-15T05:47:51;70.00;;;41.90;;
9222;SDS011;7557;51.698;3.942;2023-02-15T05:50:18;73.17;;;42.87;;
9222;SDS011;7557;51.698;3.942;2023-02-15T05:52:45;72.23;;;43.03;;
9222;SDS011;7557;51.698;3.942;2023-02-15T05:55:12;76.67;;;44.17;;
9222;SDS011;7557;51.698;3.942;2023-02-15T05:57:40;76.70;;;45.80;;
9222;SDS011;7557;51.698;3.942;2023-02-15T06:00:09;76.70;;;44.47;;
9222;SDS011;7557;51.698;3.942;2023-02-15T06:02:39;81.37;;;46.50;;
9222;SDS011;7557;51.698;3.942;2023-02-15T06:05:06;77.60;;;46.53;;
9222;SDS011;7557;51.698;3.942;2023-02-15T06:07:34;89.47;;;48.17;;
9222;SDS011;7557;51.698;3.942;2023-02-15T06:10:01;85.90;;;47.43;;
9222;SDS011;7557;51.698;3.942;2023-02-15T06:12:29;79.63;;;46.93;;
9222;SDS011;7557;51.698;3.942;2023-02-15T06:14:56;88.83;;;50.37;;
9222;SDS011;7557;51.698;3.942;2023-02-15T06:17:25;79.50;;;47.27;;
9222;SDS011;7557;51.698;3.942;2023-02-15T06:19:52;83.43;;;48.83;;
9222;SDS011;7557;51.698;3.942;2023-02-15T06:22:19;81.73;;;47.67;;
9222;SDS011;7557;51.698;3.942;2023-02-15T06:24:46;85.47;;;49.37;;
9222;SDS011;7557;51.698;3.942;2023-02-15T06:27:13;83.87;;;48.40;;
9222;SDS011;7557;51.698;3.942;2023-02-15T06:29:40;86.43;;;48.47;;
9222;SDS011;7557;51.698;3.942;2023-02-15T06:32:08;87.13;;;49.83;;
9222;SDS011;7557;51.698;3.942;2023-02-15T06:34:36;85.03;;;50.47;;
9222;SDS011;7557;51.698;3.942;2023-02-15T06:37:03;86.70;;;48.33;;
9222;SDS011;7557;51.698;3.942;2023-02-15T06:39:33;85.70;;;49.20;;
9222;SDS011;7557;51.698;3.942;2023-02-15T06:42:00;82.13;;;47.40;;
9222;SDS011;7557;51.698;3.942;2023-02-15T06:44:27;90.23;;;50.23;;
9222;SDS011;7557;51.698;3.942;2023-02-15T06:46:54;84.47;;;49.30;;
9222;SDS011;7557;51.698;3.942;2023-02-15T06:49:21;86.53;;;50.23;;
9222;SDS011;7557;51.698;3.942;2023-02-15T06:51:50;89.13;;;51.07;;
9222;SDS011;7557;51.698;3.942;2023-02-15T06:54:17;81.90;;;48.30;;
9222;SDS011;7557;51.698;3.942;2023-02-15T06:56:44;80.10;;;47.20;;
9222;SDS011;7557;51.698;3.942;2023-02-15T06:59:11;84.50;;;49.27;;
9222;SDS011;7557;51.698;3.942;2023-02-15T07:01:38;84.67;;;49.03;;
9222;SDS011;7557;51.698;3.942;2023-02-15T07:04:05;85.23;;;51.27;;
9222;SDS011;7557;51.698;3.942;2023-02-15T07:06:33;89.00;;;50.30;;
9222;SDS011;7557;51.698;3.942;2023-02-15T07:09:02;80.87;;;48.77;;
9222;SDS011;7557;51.698;3.942;2023-02-15T07:11:30;81.30;;;48.93;;
9222;SDS011;7557;51.698;3.942;2023-02-15T07:14:15;81.47;;;47.57;;
9222;SDS011;7557;51.698;3.942;2023-02-15T07:16:42;90.17;;;50.07;;
9222;SDS011;7557;51.698;3.942;2023-02-15T07:19:09;84.07;;;48.50;;
9222;SDS011;7557;51.698;3.942;2023-02-15T07:21:36;83.80;;;49.07;;
9222;SDS011;7557;51.698;3.942;2023-02-15T07:24:05;93.30;;;49.23;;
9222;SDS011;7557;51.698;3.942;2023-02-15T07:26:32;80.60;;;48.53;;
9222;SDS011;7557;51.698;3.942;2023-02-15T07:29:00;73.00;;;46.40;;
9222;SDS011;7557;51.698;3.942;2023-02-15T07:31:27;79.60;;;47.97;;
9222;SDS011;7557;51.698;3.942;2023-02-15T07:33:54;79.77;;;48.27;;
9222;SDS011;7557;51.698;3.942;2023-02-15T07:36:21;80.60;;;47.93;;
9222;SDS011;7557;51.698;3.942;2023-02-15T07:38:49;82.67;;;49.33;;
9222;SDS011;7557;51.698;3.942;2023-02-15T07:41:17;82.27;;;52.10;;
9222;SDS011;7557;51.698;3.942;2023-02-15T07:43:44;84.73;;;49.10;;
9222;SDS011;7557;51.698;3.942;2023-02-15T07:46:12;85.40;;;49.70;;
9222;SDS011;7557;51.698;3.942;2023-02-15T07:48:41;77.70;;;48.17;;
9222;SDS011;7557;51.698;3.942;2023-02-15T07:51:09;93.20;;;49.73;;
9222;SDS011;7557;51.698;3.942;2023-02-15T07:53:37;88.60;;;51.37;;
9222;SDS011;7557;51.698;3.942;2023-02-15T07:56:06;83.80;;;49.57;;
9222;SDS011;7557;51.698;3.942;2023-02-15T07:58:37;88.97;;;49.87;;
9222;SDS011;7557;51.698;3.942;2023-02-15T08:01:21;80.97;;;50.30;;
9222;SDS011;7557;51.698;3.942;2023-02-15T08:03:50;81.97;;;48.83;;
9222;SDS011;7557;51.698;3.942;2023-02-15T08:06:17;89.60;;;50.70;;
9222;SDS011;7557;51.698;3.942;2023-02-15T08:08:45;87.00;;;50.43;;
9222;SDS011;7557;51.698;3.942;2023-02-15T08:11:17;89.00;;;50.30;;
9222;SDS011;7557;51.698;3.942;2023-02-15T08:13:56;94.10;;;53.40;;
9222;SDS011;7557;51.698;3.942;2023-02-15T08:16:26;94.07;;;52.90;;
9222;SDS011;7557;51.698;3.942;2023-02-15T08:18:55;90.93;;;52.47;;
9222;SDS011;7557;51.698;3.942;2023-02-15T08:21:23;95.63;;;53.13;;
9222;SDS011;7557;51.698;3.942;2023-02-15T08:23:52;96.27;;;54.77;;
9222;SDS011;7557;51.698;3.942;2023-02-15T08:26:19;99.40;;;55.97;;
9222;SDS011;7557;51.698;3.942;2023-02-15T08:28:46;101.20;;;54.47;;
9222;SDS011;7557;51.698;3.942;2023-02-15T08:31:15;94.07;;;55.40;;
9222;SDS011;7557;51.698;3.942;2023-02-15T08:33:43;102.53;;;55.07;;
9222;SDS011;7557;51.698;3.942;2023-02-15T08:36:12;96.13;;;58.20;;
9222;SDS011;7557;51.698;3.942;2023-02-15T08:38:41;100.97;;;55.93;;
9222;SDS011;7557;51.698;3.942;2023-02-15T08:41:13;105.57;;;60.80;;
9222;SDS011;7557;51.698;3.942;2023-02-15T08:43:41;101.67;;;58.53;;
9222;SDS011;7557;51.698;3.942;2023-02-15T08:46:09;101.23;;;60.40;;
9222;SDS011;7557;51.698;3.942;2023-02-15T08:48:39;105.80;;;60.80;;
9222;SDS011;7557;51.698;3.942;2023-02-15T08:51:07;109.57;;;66.70;;
9222;SDS011;7557;51.698;3.942;2023-02-15T08:53:37;110.20;;;67.20;;
9222;SDS011;7557;51.698;3.942;2023-02-15T08:56:05;106.63;;;62.70;;
9222;SDS011;7557;51.698;3.942;2023-02-15T08:58:33;95.50;;;58.90;;
9222;SDS011;7557;51.698;3.942;2023-02-15T09:01:00;101.17;;;58.07;;
9222;SDS011;7557;51.698;3.942;2023-02-15T09:03:33;87.37;;;54.37;;
9222;SDS011;7557;51.698;3.942;2023-02-15T09:06:02;79.33;;;52.40;;
9222;SDS011;7557;51.698;3.942;2023-02-15T09:08:30;73.33;;;47.27;;
9222;SDS011;7557;51.698;3.942;2023-02-15T09:11:04;69.80;;;43.37;;
9222;SDS011;7557;51.698;3.942;2023-02-15T09:13:33;67.10;;;45.83;;
9222;SDS011;7557;51.698;3.942;2023-02-15T09:16:01;68.47;;;43.13;;
9222;SDS011;7557;51.698;3.942;2023-02-15T09:18:29;60.70;;;41.93;;
9222;SDS011;7557;51.698;3.942;2023-02-15T09:20:57;61.80;;;41.63;;
9222;SDS011;7557;51.698;3.942;2023-02-15T09:23:32;58.23;;;41.13;;
9222;SDS011;7557;51.698;3.942;2023-02-15T09:26:03;61.57;;;41.80;;
9222;SDS011;7557;51.698;3.942;2023-02-15T09:28:32;60.13;;;40.27;;
9222;SDS011;7557;51.698;3.942;2023-02-15T09:31:09;56.07;;;38.30;;
9222;SDS011;7557;51.698;3.942;2023-02-15T09:33:38;58.63;;;39.63;;
9222;SDS011;7557;51.698;3.942;2023-02-15T09:36:13;54.20;;;39.10;;
9222;SDS011;7557;51.698;3.942;2023-02-15T09:38:41;56.53;;;39.37;;
9222;SDS011;7557;51.698;3.942;2023-02-15T09:41:14;56.93;;;38.50;;
9222;SDS011;7557;51.698;3.942;2023-02-15T09:43:56;60.70;;;40.30;;
9222;SDS011;7557;51.698;3.942;2023-02-15T09:46:38;55.70;;;40.87;;
9222;SDS011;7557;51.698;3.942;2023-02-15T09:49:22;55.20;;;40.33;;
9222;SDS011;7557;51.698;3.942;2023-02-15T09:52:14;55.57;;;39.87;;
9222;SDS011;7557;51.698;3.942;2023-02-15T09:54:55;54.97;;;39.23;;
9222;SDS011;7557;51.698;3.942;2023-02-15T09:57:34;59.97;;;40.70;;
9222;SDS011;7557;51.698;3.942;2023-02-15T10:00:07;58.93;;;40.20;;
9222;SDS011;7557;51.698;3.942;2023-02-15T10:02:50;61.77;;;41.10;;
9222;SDS011;7557;51.698;3.942;2023-02-15T10:05:36;59.60;;;39.47;;
9222;SDS011;7557;51.698;3.942;2023-02-15T10:08:21;60.20;;;38.40;;
9222;SDS011;7557;51.698;3.942;2023-02-15T10:11:01;56.27;;;38.00;;
9222;SDS011;7557;51.698;3.942;2023-02-15T10:13:50;54.83;;;39.03;;
9222;SDS011;7557;51.698;3.942;2023-02-15T10:16:22;52.70;;;38.37;;
9222;SDS011;7557;51.698;3.942;2023-02-15T10:19:00;54.93;;;38.17;;
9222;SDS011;7557;51.698;3.942;2023-02-15T10:21:37;54.10;;;37.47;;
9222;SDS011;7557;51.698;3.942;2023-02-15T10:24:16;59.20;;;39.27;;
9222;SDS011;7557;51.698;3.942;2023-02-15T10:27:13;52.90;;;36.70;;
9222;SDS011;7557;51.698;3.942;2023-02-15T10:29:47;52.27;;;38.77;;
9222;SDS011;7557;51.698;3.942;2023-02-15T10:32:26;52.23;;;36.83;;
9222;SDS011;7557;51.698;3.942;2023-02-15T10:34:57;54.87;;;37.73;;
9222;SDS011;7557;51.698;3.942;2023-02-15T10:40:32;47.37;;;36.30;;
9222;SDS011;7557;51.698;3.942;2023-02-15T10:43:09;50.33;;;36.37;;
9222;SDS011;7557;51.698;3.942;2023-02-15T10:45:49;53.07;;;36.67;;
9222;SDS011;7557;51.698;3.942;2023-02-15T10:48:37;48.30;;;34.43;;
9222;SDS011;7557;51.698;3.942;2023-02-15T10:51:34;52.97;;;37.07;;
9222;SDS011;7557;51.698;3.942;2023-02-15T10:54:13;55.60;;;38.33;;
9222;SDS011;7557;51.698;3.942;2023-02-15T10:56:55;52.70;;;36.80;;
9222;SDS011;7557;51.698;3.942;2023-02-15T10:59:33;51.20;;;37.43;;
9222;SDS011;7557;51.698;3.942;2023-02-15T11:02:13;50.70;;;35.50;;
9222;SDS011;7557;51.698;3.942;2023-02-15T11:04:51;50.80;;;35.27;;
9222;SDS011;7557;51.698;3.942;2023-02-15T11:07:24;50.90;;;35.43;;
9222;SDS011;7557;51.698;3.942;2023-02-15T11:10:00;50.70;;;37.00;;
9222;SDS011;7557;51.698;3.942;2023-02-15T11:12:35;56.80;;;37.53;;
9222;SDS011;7557;51.698;3.942;2023-02-15T11:15:03;48.00;;;35.63;;
9222;SDS011;7557;51.698;3.942;2023-02-15T11:17:39;57.87;;;34.47;;
9222;SDS011;7557;51.698;3.942;2023-02-15T11:20:15;48.53;;;34.65;;
9222;SDS011;7557;51.698;3.942;2023-02-15T11:22:49;50.20;;;35.30;;
9222;SDS011;7557;51.698;3.942;2023-02-15T11:25:19;48.23;;;35.77;;
9222;SDS011;7557;51.698;3.942;2023-02-15T11:27:51;48.57;;;35.57;;
9222;SDS011;7557;51.698;3.942;2023-02-15T11:30:22;48.80;;;35.40;;
9222;SDS011;7557;51.698;3.942;2023-02-15T11:32:51;50.28;;;35.13;;
9222;SDS011;7557;51.698;3.942;2023-02-15T11:35:24;46.85;;;36.35;;
9222;SDS011;7557;51.698;3.942;2023-02-15T11:37:58;44.33;;;34.00;;
9222;SDS011;7557;51.698;3.942;2023-02-15T11:40:32;47.28;;;35.25;;
9222;SDS011;7557;51.698;3.942;2023-02-15T11:43:05;48.47;;;34.87;;
9222;SDS011;7557;51.698;3.942;2023-02-15T11:45:37;44.95;;;34.70;;
9222;SDS011;7557;51.698;3.942;2023-02-15T11:48:08;45.60;;;34.10;;
9222;SDS011;7557;51.698;3.942;2023-02-15T11:50:37;46.73;;;34.90;;
9222;SDS011;7557;51.698;3.942;2023-02-15T11:53:06;45.37;;;33.47;;
9222;SDS011;7557;51.698;3.942;2023-02-15T11:55:37;46.75;;;33.28;;
9222;SDS011;7557;51.698;3.942;2023-02-15T11:58:08;46.05;;;34.97;;
9222;SDS011;7557;51.698;3.942;2023-02-15T12:00:42;52.00;;;36.40;;
9222;SDS011;7557;51.698;3.942;2023-02-15T12:03:13;44.17;;;34.60;;
9222;SDS011;7557;51.698;3.942;2023-02-15T12:05:44;45.92;;;33.83;;
9222;SDS011;7557;51.698;3.942;2023-02-15T12:08:15;44.30;;;33.97;;
9222;SDS011;7557;51.698;3.942;2023-02-15T12:10:49;46.33;;;33.53;;
9222;SDS011;7557;51.698;3.942;2023-02-15T12:13:28;44.95;;;33.35;;
9222;SDS011;7557;51.698;3.942;2023-02-15T12:15:55;44.40;;;33.42;;
9222;SDS011;7557;51.698;3.942;2023-02-15T12:18:33;46.22;;;33.80;;
9222;SDS011;7557;51.698;3.942;2023-02-15T12:21:05;48.70;;;34.65;;
9222;SDS011;7557;51.698;3.942;2023-02-15T12:23:34;49.15;;;34.67;;
9222;SDS011;7557;51.698;3.942;2023-02-15T12:26:09;54.07;;;35.50;;
9222;SDS011;7557;51.698;3.942;2023-02-15T12:28:40;44.97;;;34.53;;
9222;SDS011;7557;51.698;3.942;2023-02-15T12:31:10;45.83;;;34.08;;
9222;SDS011;7557;51.698;3.942;2023-02-15T12:33:47;48.00;;;35.17;;
9222;SDS011;7557;51.698;3.942;2023-02-15T12:36:17;46.70;;;33.37;;
9222;SDS011;7557;51.698;3.942;2023-02-15T12:39:00;50.90;;;33.72;;
9222;SDS011;7557;51.698;3.942;2023-02-15T12:41:29;44.28;;;33.95;;
9222;SDS011;7557;51.698;3.942;2023-02-15T12:44:15;47.38;;;34.85;;
9222;SDS011;7557;51.698;3.942;2023-02-15T12:46:48;46.80;;;34.53;;
9222;SDS011;7557;51.698;3.942;2023-02-15T12:49:24;49.97;;;34.20;;
9222;SDS011;7557;51.698;3.942;2023-02-15T12:51:52;50.20;;;33.97;;
9222;SDS011;7557;51.698;3.942;2023-02-15T12:57:20;49.47;;;34.50;;
9222;SDS011;7557;51.698;3.942;2023-02-15T12:59:53;44.13;;;33.55;;
9222;SDS011;7557;51.698;3.942;2023-02-15T13:02:23;45.08;;;32.70;;
9222;SDS011;7557;51.698;3.942;2023-02-15T13:04:54;44.92;;;33.30;;
9222;SDS011;7557;51.698;3.942;2023-02-15T13:07:23;44.78;;;33.15;;
9222;SDS011;7557;51.698;3.942;2023-02-15T13:09:56;44.90;;;32.45;;
9222;SDS011;7557;51.698;3.942;2023-02-15T13:12:25;48.63;;;34.58;;
9222;SDS011;7557;51.698;3.942;2023-02-15T13:14:57;44.17;;;33.65;;
9222;SDS011;7557;51.698;3.942;2023-02-15T13:17:28;45.83;;;32.90;;
9222;SDS011;7557;51.698;3.942;2023-02-15T13:20:00;45.50;;;33.67;;
9222;SDS011;7557;51.698;3.942;2023-02-15T13:22:33;46.20;;;32.90;;
9222;SDS011;7557;51.698;3.942;2023-02-15T13:25:09;45.67;;;33.25;;
9222;SDS011;7557;51.698;3.942;2023-02-15T13:27:41;44.88;;;33.13;;
9222;SDS011;7557;51.698;3.942;2023-02-15T13:30:22;49.50;;;35.03;;
9222;SDS011;7557;51.698;3.942;2023-02-15T13:32:52;49.05;;;36.15;;
9222;SDS011;7557;51.698;3.942;2023-02-15T13:35:24;44.92;;;33.25;;
9222;SDS011;7557;51.698;3.942;2023-02-15T13:38:01;49.55;;;34.60;;
9222;SDS011;7557;51.698;3.942;2023-02-15T13:40:37;43.63;;;34.45;;
9222;SDS011;7557;51.698;3.942;2023-02-15T13:43:19;46.90;;;35.40;;
9222;SDS011;7557;51.698;3.942;2023-02-15T13:49:02;48.83;;;35.25;;
9222;SDS011;7557;51.698;3.942;2023-02-15T13:51:43;48.28;;;34.33;;
9222;SDS011;7557;51.698;3.942;2023-02-15T13:54:27;49.90;;;33.45;;
9222;SDS011;7557;51.698;3.942;2023-02-15T13:57:20;47.50;;;33.85;;
9222;SDS011;7557;51.698;3.942;2023-02-15T14:00:02;47.20;;;34.28;;
9222;SDS011;7557;51.698;3.942;2023-02-15T14:05:45;44.20;;;31.50;;
9222;SDS011;7557;51.698;3.942;2023-02-15T14:08:25;50.78;;;32.83;;
9222;SDS011;7557;51.698;3.942;2023-02-15T14:11:05;50.10;;;33.00;;
9222;SDS011;7557;51.698;3.942;2023-02-15T14:16:54;46.50;;;34.30;;
9222;SDS011;7557;51.698;3.942;2023-02-15T14:19:28;46.20;;;34.63;;
9222;SDS011;7557;51.698;3.942;2023-02-15T14:22:04;45.30;;;34.58;;
9222;SDS011;7557;51.698;3.942;2023-02-15T14:24:37;47.65;;;33.92;;
9222;SDS011;7557;51.698;3.942;2023-02-15T14:27:13;50.63;;;35.93;;
9222;SDS011;7557;51.698;3.942;2023-02-15T14:29:51;50.42;;;36.10;;
9222;SDS011;7557;51.698;3.942;2023-02-15T14:32:25;47.90;;;33.88;;
9222;SDS011;7557;51.698;3.942;2023-02-15T14:34:59;46.33;;;32.50;;
9222;SDS011;7557;51.698;3.942;2023-02-15T14:37:31;48.78;;;35.60;;
9222;SDS011;7557;51.698;3.942;2023-02-15T14:40:06;51.87;;;34.97;;
9222;SDS011;7557;51.698;3.942;2023-02-15T14:43:00;50.80;;;32.75;;
9222;SDS011;7557;51.698;3.942;2023-02-15T14:45:33;44.10;;;32.55;;
9222;SDS011;7557;51.698;3.942;2023-02-15T14:48:09;47.45;;;33.83;;
9222;SDS011;7557;51.698;3.942;2023-02-15T14:50:46;45.47;;;32.17;;
9222;SDS011;7557;51.698;3.942;2023-02-15T14:53:15;46.08;;;32.90;;
9222;SDS011;7557;51.698;3.942;2023-02-15T14:56:17;48.00;;;34.13;;
9222;SDS011;7557;51.698;3.942;2023-02-15T15:01:51;42.53;;;34.40;;
9222;SDS011;7557;51.698;3.942;2023-02-15T15:04:24;43.83;;;31.90;;
9222;SDS011;7557;51.698;3.942;2023-02-15T15:07:01;47.03;;;34.37;;
9222;SDS011;7557;51.698;3.942;2023-02-15T15:09:36;46.93;;;33.03;;
9222;SDS011;7557;51.698;3.942;2023-02-15T15:12:18;44.33;;;32.53;;
9222;SDS011;7557;51.698;3.942;2023-02-15T15:15:04;46.58;;;32.75;;
9222;SDS011;7557;51.698;3.942;2023-02-15T15:20:38;48.28;;;32.83;;
9222;SDS011;7557;51.698;3.942;2023-02-15T15:26:20;50.22;;;33.20;;
9222;SDS011;7557;51.698;3.942;2023-02-15T15:28:55;46.80;;;33.40;;
9222;SDS011;7557;51.698;3.942;2023-02-15T15:31:24;42.93;;;33.13;;
9222;SDS011;7557;51.698;3.942;2023-02-15T15:34:17;48.05;;;33.92;;
9222;SDS011;7557;51.698;3.942;2023-02-15T15:43:28;48.83;;;34.13;;
9222;SDS011;7557;51.698;3.942;2023-02-15T15:46:11;47.67;;;35.63;;
9222;SDS011;7557;51.698;3.942;2023-02-15T15:48:49;50.47;;;33.92;;
9222;SDS011;7557;51.698;3.942;2023-02-15T15:51:20;50.40;;;35.90;;
9222;SDS011;7557;51.698;3.942;2023-02-15T15:53:50;48.90;;;35.40;;
9222;SDS011;7557;51.698;3.942;2023-02-15T15:56:20;47.20;;;33.80;;
9222;SDS011;7557;51.698;3.942;2023-02-15T15:58:52;52.70;;;35.07;;